sensor_id;sensor_type;location;lat;lon;timestamp;temperature;humidity
336;DHT22;156;48.738;9.228;2023-10-19T00:00:26;10.60;99.90
336;DHT22;156;48.738;9.228;2023-10-19T00:02:52;10.60;99.90
336;DHT22;156;48.738;9.228;2023-10-19T00:05:20;10.60;99.90
336;DHT22;156;48.738;9.228;2023-10-19T00:07:46;10.60;99.90
336;DHT22;156;48.738;9.228;2023-10-19T00:10:21;10.60;99.90
336;DHT22;156;48.738;9.228;2023-10-19T00:12:51;10.60;99.90
336;DHT22;156;48.738;9.228;2023-10-19T00:15:27;10.70;99.90
336;DHT22;156;48.738;9.228;2023-10-19T00:17:59;10.70;99.90
336;DHT22;156;48.738;9.228;2023-10-19T00:20:38;10.60;99.90
336;DHT22;156;48.738;9.228;2023-10-19T00:23:17;10.60;99.90
336;DHT22;156;48.738;9.228;2023-10-19T00:25:50;10.70;99.90
336;DHT22;156;48.738;9.228;2023-10-19T00:28:18;10.80;99.90
336;DHT22;156;48.738;9.228;2023-10-19T00:30:47;10.80;99.90
336;DHT22;156;48.738;9.228;2023-10-19T00:33:16;10.80;99.90
336;DHT22;156;48.738;9.228;2023-10-19T00:35:48;10.90;99.90
336;DHT22;156;48.738;9.228;2023-10-19T00:38:23;10.80;99.90
336;DHT22;156;48.738;9.228;2023-10-19T00:41:13;10.90;99.90
336;DHT22;156;48.738;9.228;2023-10-19T00:43:46;10.80;99.90
336;DHT22;156;48.738;9.228;2023-10-19T00:46:17;10.90;99.90
336;DHT22;156;48.738;9.228;2023-10-19T00:48:49;10.90;99.90
336;DHT22;156;48.738;9.228;2023-10-19T00:51:18;10.90;99.90
336;DHT22;156;48.738;9.228;2023-10-19T00:53:57;11.00;99.90
336;DHT22;156;48.738;9.228;2023-10-19T00:56:34;11.00;99.90
336;DHT22;156;48.738;9.228;2023-10-19T00:59:03;11.00;99.90
336;DHT22;156;48.738;9.228;2023-10-19T01:01:57;11.10;99.90
336;DHT22;156;48.738;9.228;2023-10-19T01:04:48;11.10;99.90
336;DHT22;156;48.738;9.228;2023-10-19T01:07:47;11.10;99.90
336;DHT22;156;48.738;9.228;2023-10-19T01:10:25;11.10;99.90
336;DHT22;156;48.738;9.228;2023-10-19T01:13:03;11.20;99.90
336;DHT22;156;48.738;9.228;2023-10-19T01:15:35;11.20;99.90
336;DHT22;156;48.738;9.228;2023-10-19T01:18:19;11.20;99.90
336;DHT22;156;48.738;9.228;2023-10-19T01:20:53;11.20;99.90
336;DHT22;156;48.738;9.228;2023-10-19T01:23:34;11.40;99.90
336;DHT22;156;48.738;9.228;2023-10-19T01:26:03;11.40;99.90
336;DHT22;156;48.738;9.228;2023-10-19T01:28:47;11.50;99.90
336;DHT22;156;48.738;9.228;2023-10-19T01:31:18;11.00;99.90
336;DHT22;156;48.738;9.228;2023-10-19T01:33:57;11.50;99.90
336;DHT22;156;48.738;9.228;2023-10-19T01:36:25;11.50;99.90
336;DHT22;156;48.738;9.228;2023-10-19T01:38:55;11.50;99.90
336;DHT22;156;48.738;9.228;2023-10-19T01:41:22;11.60;99.90
336;DHT22;156;48.738;9.228;2023-10-19T01:43:51;11.60;99.90
336;DHT22;156;48.738;9.228;2023-10-19T01:46:19;11.60;99.90
336;DHT22;156;48.738;9.228;2023-10-19T01:48:51;11.70;99.90
336;DHT22;156;48.738;9.228;2023-10-19T01:51:21;11.70;99.90
336;DHT22;156;48.738;9.228;2023-10-19T01:53:50;11.80;99.90
336;DHT22;156;48.738;9.228;2023-10-19T01:56:18;11.80;99.90
336;DHT22;156;48.738;9.228;2023-10-19T01:58:47;11.90;99.90
336;DHT22;156;48.738;9.228;2023-10-19T02:01:15;11.90;99.90
336;DHT22;156;48.738;9.228;2023-10-19T02:03:47;11.90;99.90
336;DHT22;156;48.738;9.228;2023-10-19T02:06:15;11.80;99.90
336;DHT22;156;48.738;9.228;2023-10-19T02:08:49;11.90;99.90
336;DHT22;156;48.738;9.228;2023-10-19T02:11:19;11.80;99.90
336;DHT22;156;48.738;9.228;2023-10-19T02:13:52;11.80;99.90
336;DHT22;156;48.738;9.228;2023-10-19T02:16:31;11.80;99.90
336;DHT22;156;48.738;9.228;2023-10-19T02:18:58;11.90;99.90
336;DHT22;156;48.738;9.228;2023-10-19T02:21:26;11.90;99.90
336;DHT22;156;48.738;9.228;2023-10-19T02:23:56;11.90;99.90
336;DHT22;156;48.738;9.228;2023-10-19T02:26:34;12.00;99.90
336;DHT22;156;48.738;9.228;2023-10-19T02:29:03;12.00;99.90
336;DHT22;156;48.738;9.228;2023-10-19T02:31:37;12.00;99.90
336;DHT22;156;48.738;9.228;2023-10-19T02:34:06;12.00;99.90
336;DHT22;156;48.738;9.228;2023-10-19T02:36:33;12.10;99.90
336;DHT22;156;48.738;9.228;2023-10-19T02:39:02;12.10;99.90
336;DHT22;156;48.738;9.228;2023-10-19T02:41:34;12.10;99.90
336;DHT22;156;48.738;9.228;2023-10-19T02:44:02;12.10;99.90
336;DHT22;156;48.738;9.228;2023-10-19T02:46:33;12.00;99.90
336;DHT22;156;48.738;9.228;2023-10-19T02:49:00;12.00;99.90
336;DHT22;156;48.738;9.228;2023-10-19T02:51:28;12.00;99.90
336;DHT22;156;48.738;9.228;2023-10-19T02:53:55;12.00;99.90
336;DHT22;156;48.738;9.228;2023-10-19T02:56:22;12.20;99.90
336;DHT22;156;48.738;9.228;2023-10-19T02:58:51;12.30;99.90
336;DHT22;156;48.738;9.228;2023-10-19T03:01:19;12.30;99.90
336;DHT22;156;48.738;9.228;2023-10-19T03:03:51;12.40;99.90
336;DHT22;156;48.738;9.228;2023-10-19T03:06:22;12.40;99.90
336;DHT22;156;48.738;9.228;2023-10-19T03:08:49;12.50;99.90
336;DHT22;156;48.738;9.228;2023-10-19T03:11:23;12.50;99.90
336;DHT22;156;48.738;9.228;2023-10-19T03:13:51;12.60;99.90
336;DHT22;156;48.738;9.228;2023-10-19T03:16:18;12.60;99.90
336;DHT22;156;48.738;9.228;2023-10-19T03:18:50;12.70;99.90
336;DHT22;156;48.738;9.228;2023-10-19T03:21:16;12.60;99.90
336;DHT22;156;48.738;9.228;2023-10-19T03:23:44;12.60;99.90
336;DHT22;156;48.738;9.228;2023-10-19T03:26:11;12.60;99.90
336;DHT22;156;48.738;9.228;2023-10-19T03:28:55;12.60;99.90
336;DHT22;156;48.738;9.228;2023-10-19T03:31:22;12.60;99.90
336;DHT22;156;48.738;9.228;2023-10-19T03:33:50;12.50;99.90
336;DHT22;156;48.738;9.228;2023-10-19T03:36:21;12.50;99.90
336;DHT22;156;48.738;9.228;2023-10-19T03:38:52;12.50;99.90
336;DHT22;156;48.738;9.228;2023-10-19T03:41:20;12.50;99.90
336;DHT22;156;48.738;9.228;2023-10-19T03:43:51;12.50;99.90
336;DHT22;156;48.738;9.228;2023-10-19T03:46:21;12.50;99.90
336;DHT22;156;48.738;9.228;2023-10-19T03:48:55;12.50;99.90
336;DHT22;156;48.738;9.228;2023-10-19T03:51:25;12.50;99.90
336;DHT22;156;48.738;9.228;2023-10-19T03:53:54;12.50;99.90
336;DHT22;156;48.738;9.228;2023-10-19T03:56:26;12.50;99.90
336;DHT22;156;48.738;9.228;2023-10-19T03:58:58;12.40;99.90
336;DHT22;156;48.738;9.228;2023-10-19T04:01:27;12.40;99.90
336;DHT22;156;48.738;9.228;2023-10-19T04:03:54;12.40;99.90
336;DHT22;156;48.738;9.228;2023-10-19T04:06:21;12.40;99.90
336;DHT22;156;48.738;9.228;2023-10-19T04:08:48;12.30;99.90
336;DHT22;156;48.738;9.228;2023-10-19T04:11:19;12.40;99.90
336;DHT22;156;48.738;9.228;2023-10-19T04:13:50;12.40;99.90
336;DHT22;156;48.738;9.228;2023-10-19T04:16:20;12.40;99.90
336;DHT22;156;48.738;9.228;2023-10-19T04:18:48;12.40;99.90
336;DHT22;156;48.738;9.228;2023-10-19T04:21:15;12.50;99.90
336;DHT22;156;48.738;9.228;2023-10-19T04:23:44;12.50;99.90
336;DHT22;156;48.738;9.228;2023-10-19T04:26:12;12.50;99.90
336;DHT22;156;48.738;9.228;2023-10-19T04:28:42;12.60;99.90
336;DHT22;156;48.738;9.228;2023-10-19T04:31:17;12.60;99.90
336;DHT22;156;48.738;9.228;2023-10-19T04:33:45;12.70;99.90
336;DHT22;156;48.738;9.228;2023-10-19T04:36:16;12.60;99.90
336;DHT22;156;48.738;9.228;2023-10-19T04:38:47;12.70;99.90
336;DHT22;156;48.738;9.228;2023-10-19T04:41:17;12.80;99.90
336;DHT22;156;48.738;9.228;2023-10-19T04:43:44;12.90;99.90
336;DHT22;156;48.738;9.228;2023-10-19T04:46:15;12.90;99.90
336;DHT22;156;48.738;9.228;2023-10-19T04:48:44;12.90;99.90
336;DHT22;156;48.738;9.228;2023-10-19T04:51:14;12.90;99.90
336;DHT22;156;48.738;9.228;2023-10-19T04:53:59;12.90;99.90
336;DHT22;156;48.738;9.228;2023-10-19T04:56:29;12.90;99.90
336;DHT22;156;48.738;9.228;2023-10-19T04:58:59;12.80;99.90
336;DHT22;156;48.738;9.228;2023-10-19T05:01:34;12.80;99.90
336;DHT22;156;48.738;9.228;2023-10-19T05:04:14;12.80;99.90
336;DHT22;156;48.738;9.228;2023-10-19T05:06:47;12.70;99.90
336;DHT22;156;48.738;9.228;2023-10-19T05:09:24;12.60;99.90
336;DHT22;156;48.738;9.228;2023-10-19T05:11:54;12.70;99.90
336;DHT22;156;48.738;9.228;2023-10-19T05:14:49;12.60;99.90
336;DHT22;156;48.738;9.228;2023-10-19T05:17:36;12.40;99.90
336;DHT22;156;48.738;9.228;2023-10-19T05:20:11;12.60;99.90
336;DHT22;156;48.738;9.228;2023-10-19T05:22:49;12.50;99.90
336;DHT22;156;48.738;9.228;2023-10-19T05:25:32;12.50;99.90
336;DHT22;156;48.738;9.228;2023-10-19T05:31:44;12.30;99.90
336;DHT22;156;48.738;9.228;2023-10-19T05:34:12;12.50;99.90
336;DHT22;156;48.738;9.228;2023-10-19T06:25:23;12.90;99.90
336;DHT22;156;48.738;9.228;2023-10-19T06:27:54;12.90;99.90
336;DHT22;156;48.738;9.228;2023-10-19T06:30:31;12.90;99.90
336;DHT22;156;48.738;9.228;2023-10-19T06:33:03;12.90;99.90
336;DHT22;156;48.738;9.228;2023-10-19T06:42:33;12.70;99.90
336;DHT22;156;48.738;9.228;2023-10-19T06:49:36;12.70;99.90
336;DHT22;156;48.738;9.228;2023-10-19T06:52:10;12.80;99.90
336;DHT22;156;48.738;9.228;2023-10-19T06:54:45;12.70;99.90
336;DHT22;156;48.738;9.228;2023-10-19T06:57:35;12.80;99.90
336;DHT22;156;48.738;9.228;2023-10-19T07:00:31;12.80;99.90
336;DHT22;156;48.738;9.228;2023-10-19T07:03:04;12.90;99.90
336;DHT22;156;48.738;9.228;2023-10-19T07:05:44;12.90;99.90
336;DHT22;156;48.738;9.228;2023-10-19T07:08:18;13.30;99.90
336;DHT22;156;48.738;9.228;2023-10-19T07:10:53;12.90;99.90
336;DHT22;156;48.738;9.228;2023-10-19T07:17:02;12.80;99.90
336;DHT22;156;48.738;9.228;2023-10-19T07:19:34;12.70;99.90
336;DHT22;156;48.738;9.228;2023-10-19T07:22:09;12.80;99.90
336;DHT22;156;48.738;9.228;2023-10-19T07:24:42;12.80;99.90
336;DHT22;156;48.738;9.228;2023-10-19T07:27:18;12.80;99.90
336;DHT22;156;48.738;9.228;2023-10-19T07:30:32;12.80;99.90
336;DHT22;156;48.738;9.228;2023-10-19T07:33:03;12.90;99.90
336;DHT22;156;48.738;9.228;2023-10-19T07:35:38;12.80;99.90
336;DHT22;156;48.738;9.228;2023-10-19T07:41:57;12.80;99.90
336;DHT22;156;48.738;9.228;2023-10-19T07:44:26;12.80;99.90
336;DHT22;156;48.738;9.228;2023-10-19T07:47:07;12.70;99.90
336;DHT22;156;48.738;9.228;2023-10-19T07:49:36;12.90;99.90
336;DHT22;156;48.738;9.228;2023-10-19T07:52:09;13.00;99.90
336;DHT22;156;48.738;9.228;2023-10-19T07:54:45;13.10;99.90
336;DHT22;156;48.738;9.228;2023-10-19T07:57:12;13.20;99.90
336;DHT22;156;48.738;9.228;2023-10-19T07:59:39;13.30;99.90
336;DHT22;156;48.738;9.228;2023-10-19T08:02:06;13.40;97.60
336;DHT22;156;48.738;9.228;2023-10-19T08:04:35;13.40;88.80
336;DHT22;156;48.738;9.228;2023-10-19T08:07:02;13.50;90.30
336;DHT22;156;48.738;9.228;2023-10-19T08:09:30;13.50;92.40
336;DHT22;156;48.738;9.228;2023-10-19T08:12:00;13.60;96.20
336;DHT22;156;48.738;9.228;2023-10-19T08:14:31;13.70;99.90
336;DHT22;156;48.738;9.228;2023-10-19T08:16:58;13.70;99.90
336;DHT22;156;48.738;9.228;2023-10-19T08:19:25;13.70;99.90
336;DHT22;156;48.738;9.228;2023-10-19T08:21:54;13.70;93.20
336;DHT22;156;48.738;9.228;2023-10-19T08:24:22;13.70;92.10
336;DHT22;156;48.738;9.228;2023-10-19T08:26:49;13.80;93.00
336;DHT22;156;48.738;9.228;2023-10-19T08:29:16;13.90;96.80
336;DHT22;156;48.738;9.228;2023-10-19T08:31:45;14.00;96.00
336;DHT22;156;48.738;9.228;2023-10-19T08:34:12;14.10;85.30
336;DHT22;156;48.738;9.228;2023-10-19T08:36:39;14.20;90.00
336;DHT22;156;48.738;9.228;2023-10-19T08:39:09;14.30;79.90
336;DHT22;156;48.738;9.228;2023-10-19T08:41:39;14.30;86.30
336;DHT22;156;48.738;9.228;2023-10-19T08:44:07;14.50;90.80
336;DHT22;156;48.738;9.228;2023-10-19T08:46:36;14.50;79.10
336;DHT22;156;48.738;9.228;2023-10-19T08:49:05;14.60;47.20
336;DHT22;156;48.738;9.228;2023-10-19T08:51:36;14.60;20.20
336;DHT22;156;48.738;9.228;2023-10-19T08:54:04;14.60;26.20
336;DHT22;156;48.738;9.228;2023-10-19T08:56:33;14.70;25.10
336;DHT22;156;48.738;9.228;2023-10-19T08:59:01;14.80;34.70
336;DHT22;156;48.738;9.228;2023-10-19T09:01:29;14.90;27.20
336;DHT22;156;48.738;9.228;2023-10-19T09:03:57;15.00;29.70
336;DHT22;156;48.738;9.228;2023-10-19T09:06:24;15.00;25.70
336;DHT22;156;48.738;9.228;2023-10-19T09:08:51;15.10;7.80
336;DHT22;156;48.738;9.228;2023-10-19T09:11:18;15.30;6.70
336;DHT22;156;48.738;9.228;2023-10-19T09:13:48;15.40;1.00
336;DHT22;156;48.738;9.228;2023-10-19T09:16:17;15.60;1.00
336;DHT22;156;48.738;9.228;2023-10-19T09:18:45;15.80;1.00
336;DHT22;156;48.738;9.228;2023-10-19T09:21:15;15.90;1.00
336;DHT22;156;48.738;9.228;2023-10-19T09:23:50;15.90;1.00
336;DHT22;156;48.738;9.228;2023-10-19T09:26:17;16.10;1.00
336;DHT22;156;48.738;9.228;2023-10-19T09:28:48;16.10;1.00
336;DHT22;156;48.738;9.228;2023-10-19T09:31:15;16.10;1.00
336;DHT22;156;48.738;9.228;2023-10-19T09:33:43;16.20;1.00
336;DHT22;156;48.738;9.228;2023-10-19T09:36:12;16.30;1.00
336;DHT22;156;48.738;9.228;2023-10-19T09:38:42;16.20;1.00
336;DHT22;156;48.738;9.228;2023-10-19T09:41:12;16.20;1.00
336;DHT22;156;48.738;9.228;2023-10-19T09:43:43;16.20;1.00
336;DHT22;156;48.738;9.228;2023-10-19T09:46:21;16.20;1.00
336;DHT22;156;48.738;9.228;2023-10-19T09:48:49;16.30;1.00
336;DHT22;156;48.738;9.228;2023-10-19T09:51:19;16.40;1.00
336;DHT22;156;48.738;9.228;2023-10-19T09:53:53;16.30;1.00
336;DHT22;156;48.738;9.228;2023-10-19T09:56:27;16.30;1.00
336;DHT22;156;48.738;9.228;2023-10-19T09:59:02;16.40;1.00
336;DHT22;156;48.738;9.228;2023-10-19T10:02:09;16.30;1.00
336;DHT22;156;48.738;9.228;2023-10-19T10:04:38;16.30;1.00
336;DHT22;156;48.738;9.228;2023-10-19T10:07:07;16.30;1.00
336;DHT22;156;48.738;9.228;2023-10-19T10:09:37;16.30;1.00
336;DHT22;156;48.738;9.228;2023-10-19T10:12:16;16.40;1.00
336;DHT22;156;48.738;9.228;2023-10-19T10:14:55;16.40;1.00
336;DHT22;156;48.738;9.228;2023-10-19T10:17:25;16.40;1.00
336;DHT22;156;48.738;9.228;2023-10-19T10:19:54;16.30;1.00
336;DHT22;156;48.738;9.228;2023-10-19T10:22:23;16.40;1.00
336;DHT22;156;48.738;9.228;2023-10-19T10:24:54;16.40;1.00
336;DHT22;156;48.738;9.228;2023-10-19T10:27:21;16.30;1.00
336;DHT22;156;48.738;9.228;2023-10-19T10:29:56;16.40;1.00
336;DHT22;156;48.738;9.228;2023-10-19T10:32:44;16.40;1.00
336;DHT22;156;48.738;9.228;2023-10-19T10:38:19;16.20;1.00
336;DHT22;156;48.738;9.228;2023-10-19T10:40:47;16.20;1.00
336;DHT22;156;48.738;9.228;2023-10-19T10:43:15;16.10;1.00
336;DHT22;156;48.738;9.228;2023-10-19T10:45:43;16.10;1.00
336;DHT22;156;48.738;9.228;2023-10-19T10:48:15;16.10;1.00
336;DHT22;156;48.738;9.228;2023-10-19T10:50:43;16.10;1.00
336;DHT22;156;48.738;9.228;2023-10-19T10:53:12;16.00;1.00
336;DHT22;156;48.738;9.228;2023-10-19T10:55:39;16.00;1.00
336;DHT22;156;48.738;9.228;2023-10-19T10:58:06;16.00;1.00
336;DHT22;156;48.738;9.228;2023-10-19T11:00:34;16.00;1.00
336;DHT22;156;48.738;9.228;2023-10-19T11:03:08;15.90;1.00
336;DHT22;156;48.738;9.228;2023-10-19T11:05:37;16.00;1.00
336;DHT22;156;48.738;9.228;2023-10-19T11:08:08;16.00;1.00
336;DHT22;156;48.738;9.228;2023-10-19T11:10:39;15.90;10.00
336;DHT22;156;48.738;9.228;2023-10-19T11:13:09;15.80;22.70
336;DHT22;156;48.738;9.228;2023-10-19T11:15:37;15.80;52.40
336;DHT22;156;48.738;9.228;2023-10-19T11:18:10;15.80;63.30
336;DHT22;156;48.738;9.228;2023-10-19T11:21:03;15.80;77.80
336;DHT22;156;48.738;9.228;2023-10-19T11:23:39;15.70;93.50
336;DHT22;156;48.738;9.228;2023-10-19T11:26:08;15.60;99.90
336;DHT22;156;48.738;9.228;2023-10-19T11:28:36;15.60;99.90
336;DHT22;156;48.738;9.228;2023-10-19T11:31:21;15.50;99.90
336;DHT22;156;48.738;9.228;2023-10-19T11:33:50;15.40;99.90
336;DHT22;156;48.738;9.228;2023-10-19T11:36:21;15.40;99.90
336;DHT22;156;48.738;9.228;2023-10-19T11:38:50;15.30;99.90
336;DHT22;156;48.738;9.228;2023-10-19T11:41:18;15.40;99.90
336;DHT22;156;48.738;9.228;2023-10-19T11:43:51;15.40;99.90
336;DHT22;156;48.738;9.228;2023-10-19T11:46:18;15.50;99.90
336;DHT22;156;48.738;9.228;2023-10-19T11:48:48;15.50;99.90
336;DHT22;156;48.738;9.228;2023-10-19T11:51:15;15.50;99.90
336;DHT22;156;48.738;9.228;2023-10-19T11:53:43;15.60;99.90
336;DHT22;156;48.738;9.228;2023-10-19T11:56:25;15.70;99.90
336;DHT22;156;48.738;9.228;2023-10-19T11:58:51;15.70;99.90
336;DHT22;156;48.738;9.228;2023-10-19T12:01:30;15.80;99.90
336;DHT22;156;48.738;9.228;2023-10-19T12:03:58;15.80;99.90
336;DHT22;156;48.738;9.228;2023-10-19T12:06:25;15.80;99.90
336;DHT22;156;48.738;9.228;2023-10-19T12:08:54;15.90;99.90
336;DHT22;156;48.738;9.228;2023-10-19T12:11:24;15.90;99.90
336;DHT22;156;48.738;9.228;2023-10-19T12:13:51;16.00;99.90
336;DHT22;156;48.738;9.228;2023-10-19T12:16:19;16.00;99.90
336;DHT22;156;48.738;9.228;2023-10-19T12:18:49;16.00;99.90
336;DHT22;156;48.738;9.228;2023-10-19T12:21:19;16.00;99.90
336;DHT22;156;48.738;9.228;2023-10-19T12:23:54;16.00;99.90
336;DHT22;156;48.738;9.228;2023-10-19T12:26:22;15.80;99.90
336;DHT22;156;48.738;9.228;2023-10-19T12:28:49;15.80;99.90
336;DHT22;156;48.738;9.228;2023-10-19T12:31:16;15.70;99.90
336;DHT22;156;48.738;9.228;2023-10-19T12:33:44;15.60;99.90
336;DHT22;156;48.738;9.228;2023-10-19T12:36:11;15.70;99.90
336;DHT22;156;48.738;9.228;2023-10-19T12:38:58;15.60;99.90
336;DHT22;156;48.738;9.228;2023-10-19T12:41:25;15.50;99.90
336;DHT22;156;48.738;9.228;2023-10-19T12:43:53;15.50;99.90
336;DHT22;156;48.738;9.228;2023-10-19T12:46:23;15.50;99.90
336;DHT22;156;48.738;9.228;2023-10-19T12:48:51;15.60;99.90
336;DHT22;156;48.738;9.228;2023-10-19T12:51:18;15.60;99.90
336;DHT22;156;48.738;9.228;2023-10-19T12:53:49;15.50;99.90
336;DHT22;156;48.738;9.228;2023-10-19T12:56:18;15.50;99.90
336;DHT22;156;48.738;9.228;2023-10-19T12:58:45;15.60;99.90
336;DHT22;156;48.738;9.228;2023-10-19T13:01:13;15.70;99.90
336;DHT22;156;48.738;9.228;2023-10-19T13:03:44;15.60;99.90
336;DHT22;156;48.738;9.228;2023-10-19T13:06:12;15.50;99.90
336;DHT22;156;48.738;9.228;2023-10-19T13:08:39;15.50;99.90
336;DHT22;156;48.738;9.228;2023-10-19T13:11:06;15.40;99.90
336;DHT22;156;48.738;9.228;2023-10-19T13:13:34;15.30;99.90
336;DHT22;156;48.738;9.228;2023-10-19T13:16:02;15.30;99.90
336;DHT22;156;48.738;9.228;2023-10-19T13:18:31;15.20;99.90
336;DHT22;156;48.738;9.228;2023-10-19T13:20:59;15.20;99.90
336;DHT22;156;48.738;9.228;2023-10-19T13:23:30;15.20;99.90
336;DHT22;156;48.738;9.228;2023-10-19T13:25:59;15.10;99.90
336;DHT22;156;48.738;9.228;2023-10-19T13:28:35;15.10;99.90
336;DHT22;156;48.738;9.228;2023-10-19T13:31:03;15.20;99.90
336;DHT22;156;48.738;9.228;2023-10-19T13:33:30;15.30;99.90
336;DHT22;156;48.738;9.228;2023-10-19T13:35:57;15.30;99.90
336;DHT22;156;48.738;9.228;2023-10-19T13:38:24;15.30;99.90
336;DHT22;156;48.738;9.228;2023-10-19T13:40:51;15.30;99.90
336;DHT22;156;48.738;9.228;2023-10-19T13:43:19;15.30;99.90
336;DHT22;156;48.738;9.228;2023-10-19T13:45:48;15.30;99.90
336;DHT22;156;48.738;9.228;2023-10-19T13:48:18;15.30;99.90
336;DHT22;156;48.738;9.228;2023-10-19T13:50:47;15.40;99.90
336;DHT22;156;48.738;9.228;2023-10-19T13:53:14;15.40;99.90
336;DHT22;156;48.738;9.228;2023-10-19T13:55:42;15.30;99.90
336;DHT22;156;48.738;9.228;2023-10-19T13:58:09;15.30;99.90
336;DHT22;156;48.738;9.228;2023-10-19T14:00:36;15.30;99.90
336;DHT22;156;48.738;9.228;2023-10-19T14:03:12;15.30;99.90
336;DHT22;156;48.738;9.228;2023-10-19T14:05:41;15.30;99.90
336;DHT22;156;48.738;9.228;2023-10-19T14:08:09;15.30;99.90
336;DHT22;156;48.738;9.228;2023-10-19T14:10:36;15.40;99.90
336;DHT22;156;48.738;9.228;2023-10-19T14:13:07;15.40;99.90
336;DHT22;156;48.738;9.228;2023-10-19T14:15:37;15.40;99.90
336;DHT22;156;48.738;9.228;2023-10-19T14:18:04;15.40;99.90
336;DHT22;156;48.738;9.228;2023-10-19T14:20:33;15.40;99.90
336;DHT22;156;48.738;9.228;2023-10-19T14:23:01;15.40;99.90
336;DHT22;156;48.738;9.228;2023-10-19T14:25:30;15.40;99.90
336;DHT22;156;48.738;9.228;2023-10-19T14:28:08;15.40;99.90
336;DHT22;156;48.738;9.228;2023-10-19T14:30:37;15.40;99.90
336;DHT22;156;48.738;9.228;2023-10-19T14:33:25;15.40;99.90
336;DHT22;156;48.738;9.228;2023-10-19T14:43:09;15.30;99.90
336;DHT22;156;48.738;9.228;2023-10-19T14:46:05;15.30;99.90
336;DHT22;156;48.738;9.228;2023-10-19T14:52:16;15.20;99.90
336;DHT22;156;48.738;9.228;2023-10-19T15:04:18;15.00;99.90
336;DHT22;156;48.738;9.228;2023-10-19T15:06:59;15.00;99.90
336;DHT22;156;48.738;9.228;2023-10-19T15:16:34;15.10;99.90
336;DHT22;156;48.738;9.228;2023-10-19T15:19:36;15.10;99.90
336;DHT22;156;48.738;9.228;2023-10-19T15:22:14;15.20;99.90
336;DHT22;156;48.738;9.228;2023-10-19T15:25:27;15.20;99.90
336;DHT22;156;48.738;9.228;2023-10-19T15:42:22;15.40;99.90
336;DHT22;156;48.738;9.228;2023-10-19T15:45:04;15.40;99.90
336;DHT22;156;48.738;9.228;2023-10-19T15:50:56;15.40;99.90
336;DHT22;156;48.738;9.228;2023-10-19T16:17:38;15.30;99.90
336;DHT22;156;48.738;9.228;2023-10-19T16:20:11;15.20;99.90
336;DHT22;156;48.738;9.228;2023-10-19T16:22:43;15.20;99.90
336;DHT22;156;48.738;9.228;2023-10-19T16:26:02;15.20;99.90
336;DHT22;156;48.738;9.228;2023-10-19T16:59:22;15.30;99.90
336;DHT22;156;48.738;9.228;2023-10-19T17:02:29;15.20;99.90
336;DHT22;156;48.738;9.228;2023-10-19T17:05:13;15.30;99.90
336;DHT22;156;48.738;9.228;2023-10-19T17:07:44;15.30;99.90
336;DHT22;156;48.738;9.228;2023-10-19T17:10:38;15.30;99.90
336;DHT22;156;48.738;9.228;2023-10-19T17:13:32;15.20;99.90
336;DHT22;156;48.738;9.228;2023-10-19T17:19:03;15.10;99.90
336;DHT22;156;48.738;9.228;2023-10-19T17:25:33;15.10;99.90
336;DHT22;156;48.738;9.228;2023-10-19T17:54:30;15.10;99.90
336;DHT22;156;48.738;9.228;2023-10-19T17:57:12;15.10;99.90
336;DHT22;156;48.738;9.228;2023-10-19T17:59:48;15.10;99.90
336;DHT22;156;48.738;9.228;2023-10-19T18:09:52;15.00;99.90
336;DHT22;156;48.738;9.228;2023-10-19T18:13:19;14.80;99.90
336;DHT22;156;48.738;9.228;2023-10-19T18:16:40;15.00;99.90
336;DHT22;156;48.738;9.228;2023-10-19T18:23:06;14.90;99.90
336;DHT22;156;48.738;9.228;2023-10-19T18:28:40;14.80;99.90
336;DHT22;156;48.738;9.228;2023-10-19T18:50:59;14.60;99.90
336;DHT22;156;48.738;9.228;2023-10-19T18:53:44;14.70;99.90
336;DHT22;156;48.738;9.228;2023-10-19T18:56:47;14.70;99.90
336;DHT22;156;48.738;9.228;2023-10-19T19:13:25;14.60;99.90
336;DHT22;156;48.738;9.228;2023-10-19T19:28:50;14.60;99.90
336;DHT22;156;48.738;9.228;2023-10-19T20:21:06;14.40;99.90
336;DHT22;156;48.738;9.228;2023-10-19T20:30:40;14.30;99.90
336;DHT22;156;48.738;9.228;2023-10-19T20:36:36;14.20;99.90
336;DHT22;156;48.738;9.228;2023-10-19T20:39:20;14.20;99.90
336;DHT22;156;48.738;9.228;2023-10-19T20:41:52;14.20;99.90
336;DHT22;156;48.738;9.228;2023-10-19T20:54:41;14.10;99.90
336;DHT22;156;48.738;9.228;2023-10-19T20:57:08;14.10;99.90
336;DHT22;156;48.738;9.228;2023-10-19T20:59:37;14.10;99.90
336;DHT22;156;48.738;9.228;2023-10-19T21:06:19;14.30;99.90
336;DHT22;156;48.738;9.228;2023-10-19T21:09:13;14.20;99.90
336;DHT22;156;48.738;9.228;2023-10-19T21:15:35;14.20;99.90
336;DHT22;156;48.738;9.228;2023-10-19T21:21:17;14.00;99.90
336;DHT22;156;48.738;9.228;2023-10-19T21:23:49;14.00;99.90
336;DHT22;156;48.738;9.228;2023-10-19T21:26:19;13.90;99.90
336;DHT22;156;48.738;9.228;2023-10-19T21:29:06;14.10;99.90
336;DHT22;156;48.738;9.228;2023-10-19T21:32:16;13.90;99.90
336;DHT22;156;48.738;9.228;2023-10-19T21:41:58;13.90;99.90
336;DHT22;156;48.738;9.228;2023-10-19T21:44:52;14.00;99.90
336;DHT22;156;48.738;9.228;2023-10-19T21:47:48;14.20;99.90
336;DHT22;156;48.738;9.228;2023-10-19T21:50:18;14.20;99.90
336;DHT22;156;48.738;9.228;2023-10-19T21:52:45;13.90;99.90
336;DHT22;156;48.738;9.228;2023-10-19T21:55:12;14.00;99.90
336;DHT22;156;48.738;9.228;2023-10-19T21:57:41;14.10;99.90
336;DHT22;156;48.738;9.228;2023-10-19T22:00:15;14.00;99.90
336;DHT22;156;48.738;9.228;2023-10-19T22:02:52;14.10;99.90
336;DHT22;156;48.738;9.228;2023-10-19T22:05:19;14.00;99.90
336;DHT22;156;48.738;9.228;2023-10-19T22:07:50;14.00;99.90
336;DHT22;156;48.738;9.228;2023-10-19T22:10:18;14.00;99.90
336;DHT22;156;48.738;9.228;2023-10-19T22:12:45;14.00;99.90
336;DHT22;156;48.738;9.228;2023-10-19T22:15:13;14.00;99.90
336;DHT22;156;48.738;9.228;2023-10-19T22:17:43;14.00;99.90
336;DHT22;156;48.738;9.228;2023-10-19T22:20:12;13.90;99.90
336;DHT22;156;48.738;9.228;2023-10-19T22:22:40;13.90;99.90
336;DHT22;156;48.738;9.228;2023-10-19T22:25:14;13.90;99.90
336;DHT22;156;48.738;9.228;2023-10-19T22:27:41;13.90;99.90
336;DHT22;156;48.738;9.228;2023-10-19T22:30:08;13.90;99.90
336;DHT22;156;48.738;9.228;2023-10-19T22:32:37;13.90;99.90
336;DHT22;156;48.738;9.228;2023-10-19T22:35:05;14.00;99.90
336;DHT22;156;48.738;9.228;2023-10-19T22:37:36;14.00;99.90
336;DHT22;156;48.738;9.228;2023-10-19T22:40:04;14.10;99.90
336;DHT22;156;48.738;9.228;2023-10-19T22:42:32;14.20;99.90
336;DHT22;156;48.738;9.228;2023-10-19T22:44:59;14.20;99.90
336;DHT22;156;48.738;9.228;2023-10-19T22:47:27;14.20;99.90
336;DHT22;156;48.738;9.228;2023-10-19T22:49:58;14.20;99.90
336;DHT22;156;48.738;9.228;2023-10-19T23:00:30;14.10;99.90
336;DHT22;156;48.738;9.228;2023-10-19T23:06:36;14.20;99.90
336;DHT22;156;48.738;9.228;2023-10-19T23:09:03;14.10;99.90
336;DHT22;156;48.738;9.228;2023-10-19T23:11:46;14.20;99.90
336;DHT22;156;48.738;9.228;2023-10-19T23:14:17;14.20;99.90
336;DHT22;156;48.738;9.228;2023-10-19T23:16:51;14.20;99.90
336;DHT22;156;48.738;9.228;2023-10-19T23:25:36;14.20;99.90
336;DHT22;156;48.738;9.228;2023-10-19T23:28:05;14.10;99.90